sensor_id;sensor_type;location;lat;lon;timestamp;temperature;humidity
65231;DHT22;51813;40.666;16.602;2024-01-10T00:01:31;15.60;53.00
65231;DHT22;51813;40.666;16.602;2024-01-10T00:03:57;15.40;53.50
65231;DHT22;51813;40.666;16.602;2024-01-10T00:06:23;15.60;53.40
65231;DHT22;51813;40.666;16.602;2024-01-10T00:08:49;15.30;53.10
65231;DHT22;51813;40.666;16.602;2024-01-10T00:11:15;15.40;53.90
65231;DHT22;51813;40.666;16.602;2024-01-10T00:13:41;15.50;53.80
65231;DHT22;51813;40.666;16.602;2024-01-10T00:16:07;15.70;53.20
65231;DHT22;51813;40.666;16.602;2024-01-10T00:18:33;15.80;52.90
65231;DHT22;51813;40.666;16.602;2024-01-10T00:20:59;15.90;52.80
65231;DHT22;51813;40.666;16.602;2024-01-10T00:23:25;15.90;52.70
65231;DHT22;51813;40.666;16.602;2024-01-10T00:25:50;15.90;53.20
65231;DHT22;51813;40.666;16.602;2024-01-10T00:28:16;16.00;52.60
65231;DHT22;51813;40.666;16.602;2024-01-10T00:30:46;16.00;52.20
65231;DHT22;51813;40.666;16.602;2024-01-10T00:33:15;16.00;52.80
65231;DHT22;51813;40.666;16.602;2024-01-10T00:35:41;15.90;52.50
65231;DHT22;51813;40.666;16.602;2024-01-10T00:38:06;16.00;52.50
65231;DHT22;51813;40.666;16.602;2024-01-10T00:40:32;15.90;52.70
65231;DHT22;51813;40.666;16.602;2024-01-10T00:42:58;15.80;52.50
65231;DHT22;51813;40.666;16.602;2024-01-10T00:45:24;15.90;52.70
65231;DHT22;51813;40.666;16.602;2024-01-10T00:47:49;15.90;52.70
65231;DHT22;51813;40.666;16.602;2024-01-10T00:50:15;16.00;52.70
65231;DHT22;51813;40.666;16.602;2024-01-10T00:52:42;15.90;52.50
65231;DHT22;51813;40.666;16.602;2024-01-10T00:55:08;16.00;52.70
65231;DHT22;51813;40.666;16.602;2024-01-10T00:57:34;16.00;52.60
65231;DHT22;51813;40.666;16.602;2024-01-10T00:59:59;16.00;52.90
65231;DHT22;51813;40.666;16.602;2024-01-10T01:02:25;16.00;52.70
65231;DHT22;51813;40.666;16.602;2024-01-10T01:04:51;16.00;52.90
65231;DHT22;51813;40.666;16.602;2024-01-10T01:07:16;16.00;52.30
65231;DHT22;51813;40.666;16.602;2024-01-10T01:09:42;16.00;52.60
65231;DHT22;51813;40.666;16.602;2024-01-10T01:12:07;16.00;52.70
65231;DHT22;51813;40.666;16.602;2024-01-10T01:14:33;15.90;52.60
65231;DHT22;51813;40.666;16.602;2024-01-10T01:16:59;15.80;53.00
65231;DHT22;51813;40.666;16.602;2024-01-10T01:19:24;15.80;53.30
65231;DHT22;51813;40.666;16.602;2024-01-10T01:21:51;15.80;52.90
65231;DHT22;51813;40.666;16.602;2024-01-10T01:24:16;15.90;52.70
65231;DHT22;51813;40.666;16.602;2024-01-10T01:26:42;16.00;52.60
65231;DHT22;51813;40.666;16.602;2024-01-10T01:29:08;16.00;52.50
65231;DHT22;51813;40.666;16.602;2024-01-10T01:31:34;15.80;53.00
65231;DHT22;51813;40.666;16.602;2024-01-10T01:34:00;15.90;53.00
65231;DHT22;51813;40.666;16.602;2024-01-10T01:36:25;15.90;52.80
65231;DHT22;51813;40.666;16.602;2024-01-10T01:38:51;15.80;51.90
65231;DHT22;51813;40.666;16.602;2024-01-10T01:41:16;15.20;54.20
65231;DHT22;51813;40.666;16.602;2024-01-10T01:43:43;15.50;54.00
65231;DHT22;51813;40.666;16.602;2024-01-10T01:46:09;15.80;53.40
65231;DHT22;51813;40.666;16.602;2024-01-10T01:48:35;15.90;53.10
65231;DHT22;51813;40.666;16.602;2024-01-10T01:51:06;15.90;52.70
65231;DHT22;51813;40.666;16.602;2024-01-10T01:53:34;16.00;52.80
65231;DHT22;51813;40.666;16.602;2024-01-10T01:56:02;15.90;52.80
65231;DHT22;51813;40.666;16.602;2024-01-10T01:58:31;16.00;53.10
65231;DHT22;51813;40.666;16.602;2024-01-10T02:00:56;16.00;53.30
65231;DHT22;51813;40.666;16.602;2024-01-10T02:03:22;16.10;52.70
65231;DHT22;51813;40.666;16.602;2024-01-10T02:05:49;16.00;52.70
65231;DHT22;51813;40.666;16.602;2024-01-10T02:08:15;15.90;52.80
65231;DHT22;51813;40.666;16.602;2024-01-10T02:10:41;16.00;52.60
65231;DHT22;51813;40.666;16.602;2024-01-10T02:13:07;16.00;52.60
65231;DHT22;51813;40.666;16.602;2024-01-10T02:15:35;16.00;52.70
65231;DHT22;51813;40.666;16.602;2024-01-10T02:18:01;16.00;52.60
65231;DHT22;51813;40.666;16.602;2024-01-10T02:20:26;16.00;52.60
65231;DHT22;51813;40.666;16.602;2024-01-10T02:22:52;16.00;52.50
65231;DHT22;51813;40.666;16.602;2024-01-10T02:25:18;16.00;52.30
65231;DHT22;51813;40.666;16.602;2024-01-10T02:27:44;15.50;52.70
65231;DHT22;51813;40.666;16.602;2024-01-10T02:30:10;15.30;53.80
65231;DHT22;51813;40.666;16.602;2024-01-10T02:32:36;15.10;54.10
65231;DHT22;51813;40.666;16.602;2024-01-10T02:35:02;15.10;54.50
65231;DHT22;51813;40.666;16.602;2024-01-10T02:37:28;14.90;55.30
65231;DHT22;51813;40.666;16.602;2024-01-10T02:39:54;14.90;55.50
65231;DHT22;51813;40.666;16.602;2024-01-10T02:42:19;14.80;55.10
65231;DHT22;51813;40.666;16.602;2024-01-10T02:44:45;14.70;56.00
65231;DHT22;51813;40.666;16.602;2024-01-10T02:47:12;14.90;55.30
65231;DHT22;51813;40.666;16.602;2024-01-10T02:49:38;14.90;54.90
65231;DHT22;51813;40.666;16.602;2024-01-10T02:52:04;14.90;55.70
65231;DHT22;51813;40.666;16.602;2024-01-10T02:54:30;15.00;54.60
65231;DHT22;51813;40.666;16.602;2024-01-10T02:56:56;15.20;54.10
65231;DHT22;51813;40.666;16.602;2024-01-10T02:59:22;15.00;54.30
65231;DHT22;51813;40.666;16.602;2024-01-10T03:01:47;14.90;54.50
65231;DHT22;51813;40.666;16.602;2024-01-10T03:04:13;14.90;54.80
65231;DHT22;51813;40.666;16.602;2024-01-10T03:06:39;14.90;54.60
65231;DHT22;51813;40.666;16.602;2024-01-10T03:09:05;15.20;54.50
65231;DHT22;51813;40.666;16.602;2024-01-10T03:11:31;15.00;54.10
65231;DHT22;51813;40.666;16.602;2024-01-10T03:14:04;15.10;54.50
65231;DHT22;51813;40.666;16.602;2024-01-10T03:16:32;15.30;53.90
65231;DHT22;51813;40.666;16.602;2024-01-10T03:18:58;15.50;53.90
65231;DHT22;51813;40.666;16.602;2024-01-10T03:21:24;15.60;53.60
65231;DHT22;51813;40.666;16.602;2024-01-10T03:23:57;15.70;53.10
65231;DHT22;51813;40.666;16.602;2024-01-10T03:26:24;15.70;53.00
65231;DHT22;51813;40.666;16.602;2024-01-10T03:28:50;15.50;53.30
65231;DHT22;51813;40.666;16.602;2024-01-10T03:31:16;15.60;53.10
65231;DHT22;51813;40.666;16.602;2024-01-10T03:33:42;15.50;52.80
65231;DHT22;51813;40.666;16.602;2024-01-10T03:36:15;15.50;53.70
65231;DHT22;51813;40.666;16.602;2024-01-10T03:38:41;15.50;53.00
65231;DHT22;51813;40.666;16.602;2024-01-10T03:41:07;15.40;53.70
65231;DHT22;51813;40.666;16.602;2024-01-10T03:43:32;15.60;53.30
65231;DHT22;51813;40.666;16.602;2024-01-10T03:45:58;15.70;52.90
65231;DHT22;51813;40.666;16.602;2024-01-10T03:48:24;15.70;52.80
65231;DHT22;51813;40.666;16.602;2024-01-10T03:50:50;15.60;52.60
65231;DHT22;51813;40.666;16.602;2024-01-10T03:53:16;15.60;53.00
65231;DHT22;51813;40.666;16.602;2024-01-10T03:55:41;15.50;52.90
65231;DHT22;51813;40.666;16.602;2024-01-10T03:58:07;15.60;52.90
65231;DHT22;51813;40.666;16.602;2024-01-10T04:00:33;15.70;52.70
65231;DHT22;51813;40.666;16.602;2024-01-10T04:02:58;15.70;52.10
65231;DHT22;51813;40.666;16.602;2024-01-10T04:05:24;15.60;52.70
65231;DHT22;51813;40.666;16.602;2024-01-10T04:07:51;15.40;52.70
65231;DHT22;51813;40.666;16.602;2024-01-10T04:10:17;15.10;53.20
65231;DHT22;51813;40.666;16.602;2024-01-10T04:12:44;15.00;54.10
65231;DHT22;51813;40.666;16.602;2024-01-10T04:15:10;15.40;53.90
65231;DHT22;51813;40.666;16.602;2024-01-10T04:17:36;15.60;53.20
65231;DHT22;51813;40.666;16.602;2024-01-10T04:20:03;15.80;52.80
65231;DHT22;51813;40.666;16.602;2024-01-10T04:22:29;15.80;52.40
65231;DHT22;51813;40.666;16.602;2024-01-10T04:24:59;15.70;52.40
65231;DHT22;51813;40.666;16.602;2024-01-10T04:27:26;15.70;52.50
65231;DHT22;51813;40.666;16.602;2024-01-10T04:29:52;15.80;52.50
65231;DHT22;51813;40.666;16.602;2024-01-10T04:32:17;15.80;52.10
65231;DHT22;51813;40.666;16.602;2024-01-10T04:34:43;15.80;52.30
65231;DHT22;51813;40.666;16.602;2024-01-10T04:37:09;15.80;51.90
65231;DHT22;51813;40.666;16.602;2024-01-10T04:39:35;15.30;53.20
65231;DHT22;51813;40.666;16.602;2024-01-10T04:42:01;15.10;53.40
65231;DHT22;51813;40.666;16.602;2024-01-10T04:44:27;14.90;54.00
65231;DHT22;51813;40.666;16.602;2024-01-10T04:46:53;14.80;54.30
65231;DHT22;51813;40.666;16.602;2024-01-10T04:49:18;14.80;54.40
65231;DHT22;51813;40.666;16.602;2024-01-10T04:51:44;14.70;54.90
65231;DHT22;51813;40.666;16.602;2024-01-10T04:54:10;14.80;55.00
65231;DHT22;51813;40.666;16.602;2024-01-10T04:56:37;15.00;54.50
65231;DHT22;51813;40.666;16.602;2024-01-10T04:59:03;15.30;54.00
65231;DHT22;51813;40.666;16.602;2024-01-10T05:01:29;15.00;53.80
65231;DHT22;51813;40.666;16.602;2024-01-10T05:03:54;14.90;55.20
65231;DHT22;51813;40.666;16.602;2024-01-10T05:06:20;15.00;54.10
65231;DHT22;51813;40.666;16.602;2024-01-10T05:08:46;15.00;54.40
65231;DHT22;51813;40.666;16.602;2024-01-10T05:11:12;15.00;54.40
65231;DHT22;51813;40.666;16.602;2024-01-10T05:13:38;15.10;54.20
65231;DHT22;51813;40.666;16.602;2024-01-10T05:16:05;15.30;54.10
65231;DHT22;51813;40.666;16.602;2024-01-10T05:18:30;15.50;53.40
65231;DHT22;51813;40.666;16.602;2024-01-10T05:20:56;15.60;53.00
65231;DHT22;51813;40.666;16.602;2024-01-10T05:23:23;15.60;53.00
65231;DHT22;51813;40.666;16.602;2024-01-10T05:25:49;15.60;52.80
65231;DHT22;51813;40.666;16.602;2024-01-10T05:28:15;15.30;53.10
65231;DHT22;51813;40.666;16.602;2024-01-10T05:30:41;15.20;54.00
65231;DHT22;51813;40.666;16.602;2024-01-10T05:33:08;15.40;53.50
65231;DHT22;51813;40.666;16.602;2024-01-10T05:35:34;15.60;53.10
65231;DHT22;51813;40.666;16.602;2024-01-10T05:38:01;15.40;52.90
65231;DHT22;51813;40.666;16.602;2024-01-10T05:40:30;15.00;53.40
65231;DHT22;51813;40.666;16.602;2024-01-10T05:42:57;15.10;54.60
65231;DHT22;51813;40.666;16.602;2024-01-10T05:45:25;15.20;53.50
65231;DHT22;51813;40.666;16.602;2024-01-10T05:47:50;15.30;53.90
65231;DHT22;51813;40.666;16.602;2024-01-10T05:50:16;15.10;53.70
65231;DHT22;51813;40.666;16.602;2024-01-10T05:52:42;15.20;53.90
65231;DHT22;51813;40.666;16.602;2024-01-10T05:55:09;15.10;53.40
65231;DHT22;51813;40.666;16.602;2024-01-10T05:57:36;15.10;54.00
65231;DHT22;51813;40.666;16.602;2024-01-10T06:00:03;15.00;54.00
65231;DHT22;51813;40.666;16.602;2024-01-10T06:02:30;15.10;54.60
65231;DHT22;51813;40.666;16.602;2024-01-10T06:04:55;15.30;53.80
65231;DHT22;51813;40.666;16.602;2024-01-10T06:07:21;15.30;53.20
65231;DHT22;51813;40.666;16.602;2024-01-10T06:09:47;15.10;54.00
65231;DHT22;51813;40.666;16.602;2024-01-10T06:12:13;15.00;54.00
65231;DHT22;51813;40.666;16.602;2024-01-10T06:14:39;15.00;54.60
65231;DHT22;51813;40.666;16.602;2024-01-10T06:17:05;15.10;54.20
65231;DHT22;51813;40.666;16.602;2024-01-10T06:19:31;15.30;54.10
65231;DHT22;51813;40.666;16.602;2024-01-10T06:21:57;15.40;53.80
65231;DHT22;51813;40.666;16.602;2024-01-10T06:24:23;15.40;53.10
65231;DHT22;51813;40.666;16.602;2024-01-10T06:26:49;15.30;53.80
65231;DHT22;51813;40.666;16.602;2024-01-10T06:29:15;15.50;53.40
65231;DHT22;51813;40.666;16.602;2024-01-10T06:31:41;15.50;53.10
65231;DHT22;51813;40.666;16.602;2024-01-10T06:34:07;15.50;53.30
65231;DHT22;51813;40.666;16.602;2024-01-10T06:36:33;15.40;53.60
65231;DHT22;51813;40.666;16.602;2024-01-10T06:38:59;15.30;53.90
65231;DHT22;51813;40.666;16.602;2024-01-10T06:41:24;15.30;53.60
65231;DHT22;51813;40.666;16.602;2024-01-10T06:43:53;15.40;53.90
65231;DHT22;51813;40.666;16.602;2024-01-10T06:46:19;15.10;54.00
65231;DHT22;51813;40.666;16.602;2024-01-10T06:48:46;15.10;54.20
65231;DHT22;51813;40.666;16.602;2024-01-10T06:51:15;15.00;54.70
65231;DHT22;51813;40.666;16.602;2024-01-10T06:53:42;15.10;54.80
65231;DHT22;51813;40.666;16.602;2024-01-10T06:56:09;15.10;54.90
65231;DHT22;51813;40.666;16.602;2024-01-10T06:58:35;14.90;54.50
65231;DHT22;51813;40.666;16.602;2024-01-10T07:01:01;15.00;55.20
65231;DHT22;51813;40.666;16.602;2024-01-10T07:03:26;15.20;54.30
65231;DHT22;51813;40.666;16.602;2024-01-10T07:05:52;15.30;53.70
65231;DHT22;51813;40.666;16.602;2024-01-10T07:08:18;15.40;53.80
65231;DHT22;51813;40.666;16.602;2024-01-10T07:10:44;15.40;53.50
65231;DHT22;51813;40.666;16.602;2024-01-10T07:13:10;15.10;54.50
65231;DHT22;51813;40.666;16.602;2024-01-10T07:15:36;15.40;54.10
65231;DHT22;51813;40.666;16.602;2024-01-10T07:18:02;15.50;53.60
65231;DHT22;51813;40.666;16.602;2024-01-10T07:20:28;15.60;53.50
65231;DHT22;51813;40.666;16.602;2024-01-10T07:22:54;15.60;53.30
65231;DHT22;51813;40.666;16.602;2024-01-10T07:25:20;15.60;53.20
65231;DHT22;51813;40.666;16.602;2024-01-10T07:27:47;15.30;53.90
65231;DHT22;51813;40.666;16.602;2024-01-10T07:30:13;15.30;54.30
65231;DHT22;51813;40.666;16.602;2024-01-10T07:32:43;14.90;54.60
65231;DHT22;51813;40.666;16.602;2024-01-10T07:35:09;14.80;55.40
65231;DHT22;51813;40.666;16.602;2024-01-10T07:37:37;14.70;55.80
65231;DHT22;51813;40.666;16.602;2024-01-10T07:40:03;14.80;55.70
65231;DHT22;51813;40.666;16.602;2024-01-10T07:42:32;15.00;55.00
65231;DHT22;51813;40.666;16.602;2024-01-10T07:44:57;15.20;54.70
65231;DHT22;51813;40.666;16.602;2024-01-10T07:47:23;15.20;54.60
65231;DHT22;51813;40.666;16.602;2024-01-10T07:49:49;15.30;54.10
65231;DHT22;51813;40.666;16.602;2024-01-10T07:52:15;15.00;55.10
65231;DHT22;51813;40.666;16.602;2024-01-10T07:54:41;15.10;55.00
65231;DHT22;51813;40.666;16.602;2024-01-10T07:57:07;15.00;54.70
65231;DHT22;51813;40.666;16.602;2024-01-10T07:59:33;15.30;54.90
65231;DHT22;51813;40.666;16.602;2024-01-10T08:02:00;15.40;54.00
65231;DHT22;51813;40.666;16.602;2024-01-10T08:04:26;15.20;54.00
65231;DHT22;51813;40.666;16.602;2024-01-10T08:06:53;15.00;54.60
65231;DHT22;51813;40.666;16.602;2024-01-10T08:09:19;15.10;55.40
65231;DHT22;51813;40.666;16.602;2024-01-10T08:11:45;15.20;54.70
65231;DHT22;51813;40.666;16.602;2024-01-10T08:14:11;15.40;54.30
65231;DHT22;51813;40.666;16.602;2024-01-10T08:16:37;15.40;54.60
65231;DHT22;51813;40.666;16.602;2024-01-10T08:19:03;15.40;54.30
65231;DHT22;51813;40.666;16.602;2024-01-10T08:21:29;15.50;54.50
65231;DHT22;51813;40.666;16.602;2024-01-10T08:23:54;15.60;54.40
65231;DHT22;51813;40.666;16.602;2024-01-10T08:26:20;15.60;54.40
65231;DHT22;51813;40.666;16.602;2024-01-10T08:28:46;15.60;55.70
65231;DHT22;51813;40.666;16.602;2024-01-10T08:31:11;15.50;54.80
65231;DHT22;51813;40.666;16.602;2024-01-10T08:33:38;15.40;55.20
65231;DHT22;51813;40.666;16.602;2024-01-10T08:36:05;15.20;55.30
65231;DHT22;51813;40.666;16.602;2024-01-10T08:38:30;15.20;56.80
65231;DHT22;51813;40.666;16.602;2024-01-10T08:40:56;15.40;56.20
65231;DHT22;51813;40.666;16.602;2024-01-10T08:43:22;15.50;55.30
65231;DHT22;51813;40.666;16.602;2024-01-10T08:45:48;15.40;55.20
65231;DHT22;51813;40.666;16.602;2024-01-10T08:48:14;15.30;56.00
65231;DHT22;51813;40.666;16.602;2024-01-10T08:50:40;15.50;55.70
65231;DHT22;51813;40.666;16.602;2024-01-10T08:53:07;15.50;55.50
65231;DHT22;51813;40.666;16.602;2024-01-10T08:55:33;15.60;55.20
65231;DHT22;51813;40.666;16.602;2024-01-10T08:57:59;15.70;54.90
65231;DHT22;51813;40.666;16.602;2024-01-10T09:00:25;15.70;55.10
65231;DHT22;51813;40.666;16.602;2024-01-10T09:02:50;15.80;55.00
65231;DHT22;51813;40.666;16.602;2024-01-10T09:05:17;15.70;55.20
65231;DHT22;51813;40.666;16.602;2024-01-10T09:07:43;15.60;54.80
65231;DHT22;51813;40.666;16.602;2024-01-10T09:10:09;15.70;55.20
65231;DHT22;51813;40.666;16.602;2024-01-10T09:12:35;15.70;54.80
65231;DHT22;51813;40.666;16.602;2024-01-10T09:15:01;15.70;55.50
65231;DHT22;51813;40.666;16.602;2024-01-10T09:17:27;15.70;54.50
65231;DHT22;51813;40.666;16.602;2024-01-10T09:19:53;15.70;55.20
65231;DHT22;51813;40.666;16.602;2024-01-10T09:22:19;15.80;54.90
65231;DHT22;51813;40.666;16.602;2024-01-10T09:24:45;15.80;54.70
65231;DHT22;51813;40.666;16.602;2024-01-10T09:27:11;15.70;54.70
65231;DHT22;51813;40.666;16.602;2024-01-10T09:29:37;15.70;55.00
65231;DHT22;51813;40.666;16.602;2024-01-10T09:32:03;15.70;54.60
65231;DHT22;51813;40.666;16.602;2024-01-10T09:34:29;15.80;54.00
65231;DHT22;51813;40.666;16.602;2024-01-10T09:36:55;15.80;54.00
65231;DHT22;51813;40.666;16.602;2024-01-10T09:39:21;15.70;54.50
65231;DHT22;51813;40.666;16.602;2024-01-10T09:41:48;15.70;54.40
65231;DHT22;51813;40.666;16.602;2024-01-10T09:44:20;15.60;54.50
65231;DHT22;51813;40.666;16.602;2024-01-10T09:46:51;15.60;54.70
65231;DHT22;51813;40.666;16.602;2024-01-10T09:49:17;15.60;55.10
65231;DHT22;51813;40.666;16.602;2024-01-10T09:51:44;15.60;54.80
65231;DHT22;51813;40.666;16.602;2024-01-10T09:54:11;15.60;54.80
65231;DHT22;51813;40.666;16.602;2024-01-10T09:56:42;15.80;54.80
65231;DHT22;51813;40.666;16.602;2024-01-10T09:59:10;16.00;54.40
65231;DHT22;51813;40.666;16.602;2024-01-10T10:01:39;16.10;54.10
65231;DHT22;51813;40.666;16.602;2024-01-10T10:04:05;16.00;54.00
65231;DHT22;51813;40.666;16.602;2024-01-10T10:06:33;16.10;53.80
65231;DHT22;51813;40.666;16.602;2024-01-10T10:08:59;16.10;53.30
65231;DHT22;51813;40.666;16.602;2024-01-10T10:11:26;16.10;54.00
65231;DHT22;51813;40.666;16.602;2024-01-10T10:13:51;16.10;54.50
65231;DHT22;51813;40.666;16.602;2024-01-10T10:16:23;15.90;53.40
65231;DHT22;51813;40.666;16.602;2024-01-10T10:18:52;15.90;55.00
65231;DHT22;51813;40.666;16.602;2024-01-10T10:21:24;15.90;53.70
65231;DHT22;51813;40.666;16.602;2024-01-10T10:24:01;15.90;54.80
65231;DHT22;51813;40.666;16.602;2024-01-10T10:26:27;15.80;54.10
65231;DHT22;51813;40.666;16.602;2024-01-10T10:28:55;15.80;55.20
65231;DHT22;51813;40.666;16.602;2024-01-10T10:31:21;16.00;54.30
65231;DHT22;51813;40.666;16.602;2024-01-10T10:33:49;15.90;54.60
65231;DHT22;51813;40.666;16.602;2024-01-10T10:36:19;15.80;54.50
65231;DHT22;51813;40.666;16.602;2024-01-10T10:38:47;16.00;54.70
65231;DHT22;51813;40.666;16.602;2024-01-10T10:41:14;16.00;54.00
65231;DHT22;51813;40.666;16.602;2024-01-10T10:43:40;15.90;54.70
65231;DHT22;51813;40.666;16.602;2024-01-10T10:46:07;16.00;54.10
65231;DHT22;51813;40.666;16.602;2024-01-10T10:48:34;15.80;54.50
65231;DHT22;51813;40.666;16.602;2024-01-10T10:51:15;15.90;54.60
65231;DHT22;51813;40.666;16.602;2024-01-10T10:53:42;15.90;53.80
65231;DHT22;51813;40.666;16.602;2024-01-10T10:56:11;15.80;54.70
65231;DHT22;51813;40.666;16.602;2024-01-10T10:58:39;15.90;54.60
65231;DHT22;51813;40.666;16.602;2024-01-10T11:01:07;16.00;54.30
65231;DHT22;51813;40.666;16.602;2024-01-10T11:03:35;15.80;54.50
65231;DHT22;51813;40.666;16.602;2024-01-10T11:06:02;16.00;54.40
65231;DHT22;51813;40.666;16.602;2024-01-10T11:08:37;16.10;53.90
65231;DHT22;51813;40.666;16.602;2024-01-10T11:11:07;16.10;52.70
65231;DHT22;51813;40.666;16.602;2024-01-10T11:21:23;16.40;51.20
65231;DHT22;51813;40.666;16.602;2024-01-10T11:23:58;16.40;50.20
65231;DHT22;51813;40.666;16.602;2024-01-10T11:26:25;16.40;49.70
65231;DHT22;51813;40.666;16.602;2024-01-10T11:28:52;16.50;49.80
65231;DHT22;51813;40.666;16.602;2024-01-10T11:31:30;16.80;50.70
65231;DHT22;51813;40.666;16.602;2024-01-10T11:34:00;16.80;49.50
65231;DHT22;51813;40.666;16.602;2024-01-10T11:36:27;16.90;48.80
65231;DHT22;51813;40.666;16.602;2024-01-10T11:41:35;17.00;47.90
65231;DHT22;51813;40.666;16.602;2024-01-10T11:46:47;16.90;49.10
65231;DHT22;51813;40.666;16.602;2024-01-10T11:49:16;17.10;47.90
65231;DHT22;51813;40.666;16.602;2024-01-10T11:51:46;17.20;48.70
65231;DHT22;51813;40.666;16.602;2024-01-10T11:56:58;17.30;48.20
65231;DHT22;51813;40.666;16.602;2024-01-10T11:59:26;17.30;47.60
65231;DHT22;51813;40.666;16.602;2024-01-10T12:01:52;17.30;48.00
65231;DHT22;51813;40.666;16.602;2024-01-10T12:04:19;17.30;47.20
65231;DHT22;51813;40.666;16.602;2024-01-10T12:06:45;17.20;48.10
65231;DHT22;51813;40.666;16.602;2024-01-10T12:09:12;17.50;47.60
65231;DHT22;51813;40.666;16.602;2024-01-10T12:11:40;17.60;47.20
65231;DHT22;51813;40.666;16.602;2024-01-10T12:14:08;17.80;47.70
65231;DHT22;51813;40.666;16.602;2024-01-10T12:16:34;17.80;47.60
65231;DHT22;51813;40.666;16.602;2024-01-10T12:18:59;18.10;46.20
65231;DHT22;51813;40.666;16.602;2024-01-10T12:21:25;18.00;46.10
65231;DHT22;51813;40.666;16.602;2024-01-10T12:23:51;17.80;45.40
65231;DHT22;51813;40.666;16.602;2024-01-10T12:26:18;17.50;45.70
65231;DHT22;51813;40.666;16.602;2024-01-10T12:28:54;17.40;47.10
65231;DHT22;51813;40.666;16.602;2024-01-10T12:31:20;17.60;46.30
65231;DHT22;51813;40.666;16.602;2024-01-10T12:33:48;17.60;47.00
65231;DHT22;51813;40.666;16.602;2024-01-10T12:36:17;17.70;46.10
65231;DHT22;51813;40.666;16.602;2024-01-10T12:38:43;17.60;46.20
65231;DHT22;51813;40.666;16.602;2024-01-10T12:41:10;17.60;46.10
65231;DHT22;51813;40.666;16.602;2024-01-10T12:43:37;17.50;45.90
65231;DHT22;51813;40.666;16.602;2024-01-10T12:46:07;17.50;45.80
65231;DHT22;51813;40.666;16.602;2024-01-10T12:48:34;17.20;46.60
65231;DHT22;51813;40.666;16.602;2024-01-10T12:51:04;17.10;46.90
65231;DHT22;51813;40.666;16.602;2024-01-10T12:53:35;17.40;46.40
65231;DHT22;51813;40.666;16.602;2024-01-10T12:56:05;17.60;46.40
65231;DHT22;51813;40.666;16.602;2024-01-10T12:58:32;17.70;46.50
65231;DHT22;51813;40.666;16.602;2024-01-10T13:00:58;17.80;45.80
65231;DHT22;51813;40.666;16.602;2024-01-10T13:03:24;17.90;45.70
65231;DHT22;51813;40.666;16.602;2024-01-10T13:05:50;17.80;46.00
65231;DHT22;51813;40.666;16.602;2024-01-10T13:08:17;17.80;46.30
65231;DHT22;51813;40.666;16.602;2024-01-10T13:10:45;17.90;47.00
65231;DHT22;51813;40.666;16.602;2024-01-10T13:13:11;18.00;45.60
65231;DHT22;51813;40.666;16.602;2024-01-10T13:15:38;17.90;46.10
65231;DHT22;51813;40.666;16.602;2024-01-10T13:18:03;17.90;47.00
65231;DHT22;51813;40.666;16.602;2024-01-10T13:20:29;17.80;46.40
65231;DHT22;51813;40.666;16.602;2024-01-10T13:22:55;17.80;47.60
65231;DHT22;51813;40.666;16.602;2024-01-10T13:25:21;17.90;47.50
65231;DHT22;51813;40.666;16.602;2024-01-10T13:27:52;17.70;45.90
65231;DHT22;51813;40.666;16.602;2024-01-10T13:30:18;17.40;47.10
65231;DHT22;51813;40.666;16.602;2024-01-10T13:32:47;17.50;47.00
65231;DHT22;51813;40.666;16.602;2024-01-10T13:35:13;17.50;47.20
65231;DHT22;51813;40.666;16.602;2024-01-10T13:37:40;17.40;47.00
65231;DHT22;51813;40.666;16.602;2024-01-10T13:40:09;17.50;47.20
65231;DHT22;51813;40.666;16.602;2024-01-10T13:42:38;17.70;46.40
65231;DHT22;51813;40.666;16.602;2024-01-10T13:45:06;17.50;46.90
65231;DHT22;51813;40.666;16.602;2024-01-10T13:47:34;17.40;47.40
65231;DHT22;51813;40.666;16.602;2024-01-10T13:50:00;17.20;47.50
65231;DHT22;51813;40.666;16.602;2024-01-10T13:52:28;17.30;47.90
65231;DHT22;51813;40.666;16.602;2024-01-10T13:54:54;17.30;47.50
65231;DHT22;51813;40.666;16.602;2024-01-10T13:57:19;17.30;48.10
65231;DHT22;51813;40.666;16.602;2024-01-10T13:59:45;17.40;48.10
65231;DHT22;51813;40.666;16.602;2024-01-10T14:02:12;17.20;47.30
65231;DHT22;51813;40.666;16.602;2024-01-10T14:04:39;17.00;48.20
65231;DHT22;51813;40.666;16.602;2024-01-10T14:07:04;17.20;48.80
65231;DHT22;51813;40.666;16.602;2024-01-10T14:09:30;17.20;49.20
65231;DHT22;51813;40.666;16.602;2024-01-10T14:11:56;17.10;48.90
65231;DHT22;51813;40.666;16.602;2024-01-10T14:14:22;17.30;48.10
65231;DHT22;51813;40.666;16.602;2024-01-10T14:16:48;17.30;48.00
65231;DHT22;51813;40.666;16.602;2024-01-10T14:19:15;17.30;47.80
65231;DHT22;51813;40.666;16.602;2024-01-10T14:21:43;17.60;48.10
65231;DHT22;51813;40.666;16.602;2024-01-10T14:24:09;17.80;47.00
65231;DHT22;51813;40.666;16.602;2024-01-10T14:26:34;18.00;46.80
65231;DHT22;51813;40.666;16.602;2024-01-10T14:29:01;17.90;46.50
65231;DHT22;51813;40.666;16.602;2024-01-10T14:31:26;18.10;46.10
65231;DHT22;51813;40.666;16.602;2024-01-10T14:33:52;18.10;45.80
65231;DHT22;51813;40.666;16.602;2024-01-10T14:36:18;18.10;45.60
65231;DHT22;51813;40.666;16.602;2024-01-10T14:38:44;18.20;45.80
65231;DHT22;51813;40.666;16.602;2024-01-10T14:41:10;18.30;45.20
65231;DHT22;51813;40.666;16.602;2024-01-10T14:43:36;18.40;45.80
65231;DHT22;51813;40.666;16.602;2024-01-10T14:46:03;18.40;45.90
65231;DHT22;51813;40.666;16.602;2024-01-10T14:48:31;18.30;45.20
65231;DHT22;51813;40.666;16.602;2024-01-10T14:50:56;18.30;45.70
65231;DHT22;51813;40.666;16.602;2024-01-10T14:53:22;18.30;45.60
65231;DHT22;51813;40.666;16.602;2024-01-10T14:55:48;18.30;45.40
65231;DHT22;51813;40.666;16.602;2024-01-10T14:58:13;18.30;45.70
65231;DHT22;51813;40.666;16.602;2024-01-10T15:00:40;18.30;45.50
65231;DHT22;51813;40.666;16.602;2024-01-10T15:03:08;18.30;45.70
65231;DHT22;51813;40.666;16.602;2024-01-10T15:05:34;18.20;45.80
65231;DHT22;51813;40.666;16.602;2024-01-10T15:08:00;18.30;45.70
65231;DHT22;51813;40.666;16.602;2024-01-10T15:10:27;18.50;45.60
65231;DHT22;51813;40.666;16.602;2024-01-10T15:12:53;18.60;45.20
65231;DHT22;51813;40.666;16.602;2024-01-10T15:15:19;18.40;45.70
65231;DHT22;51813;40.666;16.602;2024-01-10T15:17:44;18.40;46.30
65231;DHT22;51813;40.666;16.602;2024-01-10T15:20:10;18.50;46.90
65231;DHT22;51813;40.666;16.602;2024-01-10T15:22:36;18.30;45.90
65231;DHT22;51813;40.666;16.602;2024-01-10T15:25:05;18.30;46.30
65231;DHT22;51813;40.666;16.602;2024-01-10T15:27:31;18.50;47.00